Time;durP1;ratioP1;P1;durP2;ratioP2;P2;SDS_P1;SDS_P2;PMS_P1;PMS_P2;Temp;Humidity;BMP_temperature;BMP_pressure;BME280_temperature;BME280_humidity;BME280_pressure;Samples;Min_cycle;Max_cycle;Signal;HPM_P1;HPM_P2
2023/01/04 00:00:59;;;;;;;14.55;6.75;;;3.10;99.90;;;;;;5087769;28;20028;-56
2023/01/04 00:03:24;;;;;;;13.73;6.72;;;3.00;99.90;;;;;;5088186;28;20020;-58
2023/01/04 00:05:50;;;;;;;13.13;6.57;;;2.90;99.90;;;;;;5085876;28;20595;-62
2023/01/04 00:08:15;;;;;;;10.88;5.65;;;2.80;99.90;;;;;;5086603;28;20028;-62
2023/01/04 00:10:41;;;;;;;12.48;5.60;;;2.70;99.90;;;;;;5086080;28;20028;-62
2023/01/04 00:13:06;;;;;;;13.45;6.15;;;2.60;99.90;;;;;;5086087;28;20028;-62
2023/01/04 00:15:32;;;;;;;9.43;6.22;;;2.50;99.90;;;;;;5089091;28;20024;-57
2023/01/04 00:17:57;;;;;;;12.23;6.43;;;2.40;99.90;;;;;;5084656;28;20369;-57
2023/01/04 00:20:22;;;;;;;10.52;6.00;;;2.40;99.90;;;;;;5087225;28;20089;-55
2023/01/04 00:22:48;;;;;;;12.73;6.10;;;2.30;99.90;;;;;;5087553;28;20032;-54
2023/01/04 00:25:13;;;;;;;7.90;4.32;;;2.20;99.90;;;;;;5088077;28;20559;-54
2023/01/04 00:27:39;;;;;;;10.02;5.40;;;2.10;99.90;;;;;;5086961;28;20040;-54
2023/01/04 00:30:05;;;;;;;12.27;6.15;;;2.10;99.90;;;;;;5087084;28;20043;-56
2023/01/04 00:32:30;;;;;;;11.02;5.22;;;2.00;99.90;;;;;;5086612;28;20032;-57
2023/01/04 00:34:56;;;;;;;12.15;5.72;;;1.90;99.90;;;;;;5087328;28;20040;-56
2023/01/04 00:37:21;;;;;;;10.88;5.47;;;1.90;99.90;;;;;;5086172;28;20760;-54
2023/01/04 00:39:47;;;;;;;11.35;6.13;;;1.90;99.90;;;;;;5097962;28;20035;-54
2023/01/04 00:42:12;;;;;;;10.05;5.75;;;1.80;99.90;;;;;;5087061;28;20036;-57
2023/01/04 00:44:37;;;;;;;10.52;5.40;;;1.90;99.90;;;;;;5097893;28;20094;-58
2023/01/04 00:47:03;;;;;;;10.07;4.85;;;1.80;99.90;;;;;;5107095;28;20361;-58
2023/01/04 00:49:30;;;;;;;13.85;6.30;;;1.80;99.90;;;;;;5087128;28;20107;-55
2023/01/04 00:51:56;;;;;;;9.93;6.03;;;1.80;99.90;;;;;;5108237;28;20065;-57
2023/01/04 00:54:21;;;;;;;8.20;4.78;;;1.70;99.90;;;;;;5088197;28;20032;-55
2023/01/04 00:56:47;;;;;;;7.88;4.70;;;1.70;99.90;;;;;;5109244;28;20035;-53
2023/01/04 00:59:17;;;;;;;7.40;4.53;;;1.70;99.90;;;;;;5088173;28;20028;-57
2023/01/04 01:01:44;;;;;;;8.52;5.07;;;1.70;99.90;;;;;;5109769;28;20023;-57
2023/01/04 01:04:12;;;;;;;9.18;4.35;;;1.70;99.90;;;;;;5088160;28;20032;-55
2023/01/04 01:06:38;;;;;;;12.57;5.18;;;1.80;99.90;;;;;;5103455;28;20031;-54
2023/01/04 01:09:04;;;;;;;8.73;5.63;;;1.70;99.90;;;;;;5097532;28;20178;-57
2023/01/04 01:11:30;;;;;;;10.70;5.63;;;1.80;99.90;;;;;;5088638;28;20039;-57
2023/01/04 01:13:56;;;;;;;8.75;4.68;;;1.80;99.90;;;;;;5098512;28;20032;-57
2023/01/04 01:16:23;;;;;;;9.18;5.13;;;1.70;99.90;;;;;;5104158;28;20039;-58
2023/01/04 01:18:49;;;;;;;10.43;4.95;;;1.70;99.90;;;;;;5086333;28;20388;-57
2023/01/04 01:21:27;;;;;;;8.27;5.25;;;1.80;99.90;;;;;;5088791;28;20027;-54
2023/01/04 01:23:54;;;;;;;9.95;4.57;;;1.80;99.90;;;;;;5086439;28;20023;-56
2023/01/04 01:26:22;;;;;;;9.43;5.45;;;1.90;99.90;;;;;;5090269;28;20036;-56
2023/01/04 01:28:48;;;;;;;7.95;4.70;;;1.90;99.90;;;;;;5095350;28;20104;-56
2023/01/04 01:31:16;;;;;;;8.77;5.32;;;2.10;99.90;;;;;;5108284;28;20016;-56
2023/01/04 01:33:44;;;;;;;11.18;5.55;;;2.10;99.90;;;;;;5093760;28;20036;-55
2023/01/04 01:36:10;;;;;;;10.20;5.53;;;2.20;99.90;;;;;;5108936;28;20027;-53
2023/01/04 01:38:36;;;;;;;6.32;3.92;;;2.20;99.90;;;;;;5078030;28;20615;-53
2023/01/04 01:41:04;;;;;;;9.55;5.40;;;2.20;99.90;;;;;;5087558;28;20476;-56
2023/01/04 01:43:52;;;;;;;7.10;4.90;;;2.30;99.90;;;;;;5086664;28;20115;-56
2023/01/04 01:46:28;;;;;;;7.50;4.88;;;2.40;99.90;;;;;;5104257;28;20035;-56
2023/01/04 01:49:08;;;;;;;8.00;5.32;;;2.50;99.90;;;;;;5078688;28;20511;-57
2023/01/04 01:51:34;;;;;;;10.38;5.93;;;2.60;99.90;;;;;;5085628;28;20572;-55
2023/01/04 01:54:05;;;;;;;8.80;5.70;;;2.70;99.90;;;;;;5110917;28;20026;-56
2023/01/04 01:56:34;;;;;;;8.52;4.75;;;2.90;99.90;;;;;;5089363;28;20067;-55
2023/01/04 01:59:00;;;;;;;8.25;4.75;;;2.90;99.90;;;;;;5097297;28;20028;-56
2023/01/04 02:01:26;;;;;;;6.43;4.32;;;3.00;99.90;;;;;;5096379;28;20488;-58
2023/01/04 02:03:52;;;;;;;6.57;4.35;;;3.00;99.90;;;;;;5110699;28;20027;-57
2023/01/04 02:06:23;;;;;;;6.75;4.15;;;3.00;99.90;;;;;;5083975;28;20068;-56
2023/01/04 02:08:48;;;;;;;6.78;4.10;;;3.10;99.90;;;;;;5069647;28;20025;-57
2023/01/04 02:11:14;;;;;;;7.97;4.70;;;3.00;99.90;;;;;;5109227;28;20411;-56
2023/01/04 02:16:39;;;;;;;6.75;4.93;;;3.00;99.90;;;;;;5089138;28;20039;-56
2023/01/04 02:19:29;;;;;;;6.13;4.75;;;3.00;99.90;;;;;;5095079;28;20027;-56
2023/01/04 02:22:29;;;;;;;8.23;5.30;;;3.00;99.90;;;;;;5083770;28;20034;-56
2023/01/04 02:25:22;;;;;;;6.65;3.88;;;3.00;99.90;;;;;;5090246;28;20491;-55
2023/01/04 02:27:58;;;;;;;7.20;4.65;;;3.00;99.90;;;;;;5090620;28;20042;-56
2023/01/04 02:30:48;;;;;;;7.22;4.22;;;3.00;99.90;;;;;;5082117;28;20032;-55
2023/01/04 02:33:27;;;;;;;9.75;4.85;;;2.90;99.90;;;;;;5083515;28;20036;-55
2023/01/04 02:36:13;;;;;;;6.82;5.00;;;2.90;99.90;;;;;;5073124;28;20072;-57
2023/01/04 02:38:47;;;;;;;6.90;4.57;;;2.90;99.90;;;;;;5086823;28;20057;-57
2023/01/04 02:41:26;;;;;;;6.93;5.13;;;2.80;99.90;;;;;;5109623;28;20513;-56
2023/01/04 02:46:43;;;;;;;8.20;4.78;;;2.80;99.90;;;;;;5071878;28;20044;-56
2023/01/04 02:51:53;;;;;;;10.05;5.80;;;2.80;99.90;;;;;;5092202;28;20525;-55
2023/01/04 02:54:28;;;;;;;7.65;5.50;;;2.70;99.90;;;;;;5109755;28;20047;-53
2023/01/04 02:57:12;;;;;;;6.05;4.25;;;2.70;99.90;;;;;;5074604;28;20203;-56
2023/01/04 02:59:43;;;;;;;9.52;6.20;;;2.70;99.90;;;;;;5109636;28;20479;-56
2023/01/04 03:06:17;;;;;;;19.73;5.95;;;2.60;99.90;;;;;;5093571;28;20086;-57
2023/01/04 03:09:03;;;;;;;11.82;6.15;;;2.60;99.90;;;;;;5087126;28;20461;-54
2023/01/04 03:14:27;;;;;;;9.82;6.15;;;2.60;99.90;;;;;;5099014;28;20035;-53
2023/01/04 03:16:54;;;;;;;10.13;5.78;;;2.60;99.90;;;;;;5075868;28;20024;-55
2023/01/04 03:35:21;;;;;;;8.70;5.82;;;2.70;99.90;;;;;;5080408;28;20034;-55
2023/01/04 03:36:19;;;;;;;10.65;5.82;;;2.90;99.90;;;;;;5070613;28;20399;-56
2023/01/04 03:50:37;;;;;;;8.02;5.43;;;3.00;99.90;;;;;;5070134;28;20530;-56
2023/01/04 03:53:04;;;;;;;11.52;6.28;;;3.00;99.90;;;;;;5088274;28;20020;-55
2023/01/04 03:55:31;;;;;;;9.85;5.82;;;3.00;99.90;;;;;;5110001;28;20060;-54
2023/01/04 03:57:58;;;;;;;9.68;6.43;;;3.00;99.90;;;;;;5088357;28;20395;-56
2023/01/04 04:00:23;;;;;;;12.10;6.53;;;3.10;99.90;;;;;;5109663;28;20042;-57
2023/01/04 04:02:49;;;;;;;8.75;5.80;;;3.10;99.90;;;;;;5088611;28;20031;-57
2023/01/04 04:10:49;;;;;;;9.18;5.93;;;3.20;99.90;;;;;;5070060;28;20504;-56
2023/01/04 04:13:14;;;;;;;8.40;6.20;;;3.30;99.90;;;;;;5090642;28;20032;-56
2023/01/04 04:15:40;;;;;;;9.00;6.25;;;3.30;99.90;;;;;;5108533;28;20035;-62
2023/01/04 04:18:05;;;;;;;7.55;5.30;;;3.30;99.90;;;;;;5088058;28;20038;-62
2023/01/04 04:20:31;;;;;;;10.52;6.38;;;3.30;99.90;;;;;;5109094;28;20457;-62
2023/01/04 04:22:56;;;;;;;9.25;6.07;;;3.40;99.90;;;;;;5088262;28;20027;-63
2023/01/04 04:25:22;;;;;;;8.48;5.93;;;3.40;99.90;;;;;;5106785;28;20328;-62
2023/01/04 04:27:47;;;;;;;11.32;5.88;;;3.40;99.90;;;;;;5099936;28;20070;-62
2023/01/04 04:30:13;;;;;;;9.73;5.55;;;3.40;99.90;;;;;;5089752;28;20511;-59
2023/01/04 04:32:38;;;;;;;12.82;5.22;;;3.40;99.90;;;;;;5107238;28;20050;-62
2023/01/04 04:35:04;;;;;;;9.48;6.45;;;3.40;99.90;;;;;;5089694;28;20028;-57
2023/01/04 04:37:31;;;;;;;8.93;5.72;;;3.40;99.90;;;;;;5106920;28;20034;-58
2023/01/04 04:39:57;;;;;;;8.38;5.97;;;3.40;99.90;;;;;;5089619;28;20035;-57
2023/01/04 04:42:22;;;;;;;11.88;5.55;;;3.40;99.90;;;;;;5106700;28;20530;-58
2023/01/04 04:44:48;;;;;;;11.18;6.10;;;3.40;99.90;;;;;;5089957;28;20112;-58
2023/01/04 04:47:13;;;;;;;11.32;6.43;;;3.40;99.90;;;;;;5106596;28;20106;-56
2023/01/04 04:49:39;;;;;;;10.60;6.38;;;3.50;99.90;;;;;;5109537;28;20472;-57
2023/01/04 04:52:04;;;;;;;8.18;5.70;;;3.50;99.90;;;;;;5093773;28;20055;-56
2023/01/04 04:54:29;;;;;;;12.75;5.97;;;3.50;99.90;;;;;;5109373;28;20027;-56
2023/01/04 04:56:55;;;;;;;16.15;9.00;;;3.50;99.90;;;;;;5092501;28;20468;-55
2023/01/04 04:59:20;;;;;;;16.75;9.45;;;3.50;99.90;;;;;;5109435;28;20366;-56
2023/01/04 05:01:46;;;;;;;11.55;6.63;;;3.50;99.90;;;;;;5091183;28;20380;-57
2023/01/04 05:04:21;;;;;;;17.60;9.77;;;3.50;99.90;;;;;;5109211;28;20019;-56
2023/01/04 05:06:48;;;;;;;9.73;7.28;;;3.50;99.90;;;;;;5067545;28;20043;-57
2023/01/04 05:09:14;;;;;;;13.23;6.85;;;3.50;99.90;;;;;;5109165;28;20030;-57
2023/01/04 05:14:24;;;;;;;14.13;8.95;;;3.40;99.90;;;;;;5109019;28;20100;-56
2023/01/04 05:16:49;;;;;;;13.05;7.28;;;3.50;99.90;;;;;;5091375;28;20104;-56
2023/01/04 05:19:15;;;;;;;9.07;6.38;;;3.50;99.90;;;;;;5109052;28;20034;-58
2023/01/04 05:21:40;;;;;;;12.00;6.90;;;3.50;99.90;;;;;;5090122;28;20020;-57
2023/01/04 05:24:09;;;;;;;10.27;6.80;;;3.50;99.90;;;;;;5108854;28;20027;-55
2023/01/04 05:26:34;;;;;;;7.28;5.97;;;3.50;99.90;;;;;;5087888;28;20044;-57
2023/01/04 05:29:00;;;;;;;10.82;6.40;;;3.60;99.90;;;;;;5109099;28;20034;-53
2023/01/04 05:31:25;;;;;;;10.43;5.80;;;3.60;99.90;;;;;;5087762;28;20028;-56
2023/01/04 05:33:51;;;;;;;10.30;5.90;;;3.60;99.90;;;;;;5107611;28;20096;-57
2023/01/04 05:36:16;;;;;;;9.82;5.80;;;3.60;99.90;;;;;;5088705;28;20400;-54
2023/01/04 05:38:42;;;;;;;12.93;6.30;;;3.70;99.90;;;;;;5106503;28;20077;-57
2023/01/04 05:42:23;;;;;;;11.05;6.25;;;3.70;99.90;;;;;;5088732;28;20093;-56
2023/01/04 05:43:53;;;;;;;9.82;6.45;;;3.70;99.90;;;;;;5091241;28;20110;-54
2023/01/04 05:46:18;;;;;;;9.80;5.53;;;3.80;99.90;;;;;;5088893;28;20482;-55
2023/01/04 05:48:44;;;;;;;7.20;5.10;;;3.80;99.90;;;;;;5106590;28;20024;-56
2023/01/04 05:51:09;;;;;;;9.25;5.80;;;3.80;99.90;;;;;;5088802;28;20035;-56
2023/01/04 05:53:35;;;;;;;7.68;5.57;;;3.90;99.90;;;;;;5087026;28;20036;-56
2023/01/04 05:56:00;;;;;;;10.55;5.50;;;3.90;99.90;;;;;;5107697;28;20038;-55
2023/01/04 05:58:26;;;;;;;7.28;5.50;;;4.00;99.90;;;;;;5085629;28;20035;-58
2023/01/04 06:00:52;;;;;;;10.60;5.22;;;4.00;99.90;;;;;;5107641;28;20036;-55
2023/01/04 06:03:18;;;;;;;9.68;5.47;;;4.10;99.90;;;;;;5086835;28;20065;-55
2023/01/04 06:05:51;;;;;;;9.77;5.40;;;4.10;99.90;;;;;;5089865;28;20032;-52
2023/01/04 06:08:16;;;;;;;8.35;5.43;;;4.10;99.90;;;;;;5082291;28;20036;-57
2023/01/04 06:10:42;;;;;;;7.07;4.53;;;4.20;99.90;;;;;;5107822;28;20035;-56
2023/01/04 06:13:08;;;;;;;7.40;5.07;;;4.20;99.90;;;;;;5086701;28;20369;-56
2023/01/04 06:15:33;;;;;;;7.47;5.47;;;4.20;99.90;;;;;;5107781;28;20036;-54
2023/01/04 06:17:58;;;;;;;7.50;4.90;;;4.20;99.90;;;;;;5086951;28;20039;-56
2023/01/04 06:20:24;;;;;;;7.80;4.57;;;4.20;99.90;;;;;;5107394;28;20028;-54
2023/01/04 06:22:49;;;;;;;9.05;5.18;;;4.30;99.90;;;;;;5086874;28;20496;-56
2023/01/04 06:32:37;;;;;;;7.18;4.25;;;4.30;99.90;;;;;;5106766;28;20034;-55
2023/01/04 06:35:03;;;;;;;6.82;4.40;;;4.40;99.90;;;;;;5088715;28;20028;-57
2023/01/04 06:37:28;;;;;;;8.18;4.97;;;4.40;99.90;;;;;;5105459;28;20454;-51
2023/01/04 06:39:54;;;;;;;8.40;4.32;;;4.40;99.90;;;;;;5092057;28;20080;-52
2023/01/04 06:45:04;;;;;;;5.65;4.40;;;4.50;99.90;;;;;;5071149;28;20615;-54
2023/01/04 06:47:29;;;;;;;8.45;5.90;;;4.60;99.90;;;;;;5108797;28;20073;-55
2023/01/04 06:49:55;;;;;;;8.07;4.25;;;4.60;99.90;;;;;;5090340;28;20043;-56
2023/01/04 06:52:20;;;;;;;6.88;4.10;;;4.70;99.90;;;;;;5108982;28;20220;-55
2023/01/04 06:54:46;;;;;;;5.65;4.30;;;4.70;99.90;;;;;;5091771;28;20069;-57
2023/01/04 06:57:12;;;;;;;5.75;4.43;;;4.70;99.90;;;;;;5108774;28;20042;-57
2023/01/04 06:59:37;;;;;;;11.05;4.18;;;4.70;99.90;;;;;;5111584;28;20020;-54
2023/01/04 07:02:03;;;;;;;6.70;4.35;;;4.80;99.90;;;;;;5095617;28;20027;-55
2023/01/04 07:04:28;;;;;;;5.72;4.07;;;4.80;99.90;;;;;;5107095;28;20046;-52
2023/01/04 07:06:54;;;;;;;5.03;3.90;;;4.80;99.90;;;;;;5093861;28;20808;-57
2023/01/04 07:09:19;;;;;;;6.97;3.60;;;4.90;99.90;;;;;;5111467;28;20035;-56
2023/01/04 07:11:45;;;;;;;6.28;3.80;;;4.90;99.90;;;;;;5092911;28;20023;-54
2023/01/04 07:14:10;;;;;;;7.70;3.50;;;4.90;99.90;;;;;;5111421;28;20023;-57
2023/01/04 07:16:36;;;;;;;5.60;3.88;;;4.90;99.90;;;;;;5091943;28;20035;-57
2023/01/04 07:19:01;;;;;;;5.78;3.60;;;5.00;99.90;;;;;;5111120;28;20473;-53
2023/01/04 07:21:28;;;;;;;6.35;3.65;;;5.00;99.90;;;;;;5090332;28;20097;-57
2023/01/04 07:23:54;;;;;;;4.65;3.60;;;5.00;99.90;;;;;;5111002;28;20042;-54
2023/01/04 07:26:19;;;;;;;4.75;3.20;;;5.10;99.90;;;;;;5091023;28;20496;-54
2023/01/04 07:31:29;;;;;;;5.85;2.95;;;5.10;99.90;;;;;;5071005;28;20500;-56
2023/01/04 07:33:54;;;;;;;5.47;3.30;;;5.20;99.90;;;;;;5111092;28;20059;-54
2023/01/04 07:36:20;;;;;;;4.90;2.67;;;5.20;99.90;;;;;;5088666;28;20450;-56
2023/01/04 07:38:45;;;;;;;3.50;2.53;;;5.30;99.90;;;;;;5089298;28;20192;-53
2023/01/04 07:41:11;;;;;;;3.50;2.67;;;5.30;99.90;;;;;;5109659;28;20235;-56
2023/01/04 07:43:36;;;;;;;7.68;3.13;;;5.30;99.90;;;;;;5089038;28;20089;-58
2023/01/04 07:46:02;;;;;;;3.53;2.47;;;5.50;99.90;;;;;;5109667;28;20576;-56
2023/01/04 07:48:28;;;;;;;5.05;2.60;;;5.50;99.90;;;;;;5088928;28;20024;-55
2023/01/04 07:50:54;;;;;;;7.68;2.63;;;5.60;99.90;;;;;;5109786;28;20060;-56
2023/01/04 07:53:19;;;;;;;7.80;2.42;;;5.80;99.90;;;;;;5087253;28;20024;-55
2023/01/04 07:55:45;;;;;;;3.22;2.53;;;5.80;99.90;;;;;;5109678;28;20047;-54
2023/01/04 07:58:10;;;;;;;7.18;2.70;;;5.90;99.90;;;;;;5088497;28;20035;-53
2023/01/04 08:00:36;;;;;;;5.10;2.60;;;6.00;99.90;;;;;;5109733;28;20032;-53
2023/01/04 08:03:02;;;;;;;4.47;2.80;;;6.10;99.90;;;;;;5088444;28;20032;-50
2023/01/04 08:05:30;;;;;;;3.45;2.33;;;6.10;99.90;;;;;;5096598;28;20501;-53
2023/01/04 08:07:55;;;;;;;5.90;2.80;;;6.10;99.90;;;;;;5093134;28;20039;-52
2023/01/04 08:10:21;;;;;;;8.90;3.22;;;6.20;99.90;;;;;;5109281;28;20230;-56
2023/01/04 08:12:47;;;;;;;7.63;2.65;;;6.20;99.90;;;;;;5087330;28;20093;-56
2023/01/04 08:15:14;;;;;;;5.93;2.70;;;6.20;99.90;;;;;;5109124;28;20028;-55
2023/01/04 08:17:39;;;;;;;4.28;2.33;;;6.20;99.90;;;;;;5099408;28;20104;-52
2023/01/04 08:20:06;;;;;;;3.38;2.78;;;6.30;99.90;;;;;;5090066;28;20480;-50
2023/01/04 08:22:31;;;;;;;4.22;2.05;;;6.20;99.90;;;;;;5107202;28;20049;-51
2023/01/04 08:24:57;;;;;;;4.75;3.05;;;6.30;99.90;;;;;;5090124;28;20495;-54
2023/01/04 08:27:22;;;;;;;3.88;2.60;;;6.30;99.90;;;;;;5106703;28;20048;-51
2023/01/04 08:29:48;;;;;;;3.70;2.60;;;6.30;99.90;;;;;;5109868;28;20483;-52
2023/01/04 08:32:13;;;;;;;4.38;2.67;;;6.40;99.90;;;;;;5083572;28;20028;-53
2023/01/04 08:34:39;;;;;;;4.38;2.60;;;6.40;99.90;;;;;;5089617;28;20065;-52
2023/01/04 08:37:04;;;;;;;3.30;2.55;;;6.40;99.90;;;;;;5091399;28;20445;-55
2023/01/04 08:39:34;;;;;;;3.28;2.05;;;6.40;99.90;;;;;;5109913;28;20589;-54
2023/01/04 08:41:59;;;;;;;3.88;2.55;;;6.50;99.90;;;;;;5090753;28;20035;-52
2023/01/04 08:44:25;;;;;;;3.88;2.55;;;6.50;99.90;;;;;;5102677;28;20040;-52
2023/01/04 08:46:52;;;;;;;5.72;2.75;;;6.50;99.90;;;;;;5087378;28;20514;-54
2023/01/04 08:49:18;;;;;;;3.47;2.38;;;6.60;99.90;;;;;;5089563;28;20032;-51
2023/01/04 08:51:44;;;;;;;4.78;2.30;;;6.60;99.90;;;;;;5106026;28;20024;-55
2023/01/04 08:54:10;;;;;;;5.90;2.78;;;6.70;99.90;;;;;;5089437;28;20016;-53
2023/01/04 08:56:36;;;;;;;5.50;2.65;;;6.70;99.90;;;;;;5108898;28;20104;-55
2023/01/04 08:59:01;;;;;;;3.45;1.95;;;6.70;99.90;;;;;;5069149;28;20128;-52
2023/01/04 09:01:27;;;;;;;5.82;2.63;;;6.70;99.90;;;;;;5107714;28;20027;-57
2023/01/04 09:03:54;;;;;;;3.97;2.60;;;6.70;99.90;;;;;;5087707;28;20059;-51
2023/01/04 09:06:20;;;;;;;3.17;2.35;;;6.80;99.90;;;;;;5108403;28;20031;-54
2023/01/04 09:08:45;;;;;;;3.55;2.47;;;6.80;99.90;;;;;;5086478;28;20077;-52
2023/01/04 09:11:16;;;;;;;4.68;2.75;;;6.80;99.90;;;;;;5107240;28;20027;-56
2023/01/04 09:13:43;;;;;;;8.48;2.90;;;6.80;99.90;;;;;;5083440;28;20503;-57
2023/01/04 09:16:12;;;;;;;5.13;2.35;;;6.80;99.90;;;;;;5108525;28;20036;-56
2023/01/04 09:18:38;;;;;;;4.97;2.38;;;6.90;99.90;;;;;;5087269;28;20024;-56
2023/01/04 09:21:09;;;;;;;8.43;3.38;;;6.90;99.90;;;;;;5108634;28;20030;-54
2023/01/04 09:23:36;;;;;;;6.43;3.10;;;6.90;99.90;;;;;;5087331;28;20102;-54
2023/01/04 09:26:13;;;;;;;3.65;2.30;;;6.90;99.90;;;;;;5108388;28;20406;-51
2023/01/04 09:28:39;;;;;;;6.03;2.85;;;6.90;99.90;;;;;;5096279;28;20550;-51
2023/01/04 09:31:11;;;;;;;5.82;3.25;;;6.90;99.90;;;;;;5089101;28;20028;-54
2023/01/04 09:33:37;;;;;;;6.38;3.22;;;6.90;99.90;;;;;;5083728;28;20089;-55
2023/01/04 09:36:03;;;;;;;4.75;3.00;;;6.90;99.90;;;;;;5108178;28;20028;-54
2023/01/04 09:38:29;;;;;;;6.45;3.47;;;6.90;99.90;;;;;;5087233;28;20024;-54
2023/01/04 09:41:13;;;;;;;5.10;2.80;;;6.90;99.90;;;;;;5105254;28;20232;-53
2023/01/04 09:43:50;;;;;;;7.28;3.13;;;6.90;99.90;;;;;;5087008;28;20020;-53
2023/01/04 09:46:20;;;;;;;5.55;3.80;;;7.00;99.90;;;;;;5068911;28;20040;-54
2023/01/04 09:48:48;;;;;;;6.03;3.35;;;7.00;99.90;;;;;;5089190;28;20028;-54
2023/01/04 09:51:19;;;;;;;7.63;3.45;;;7.00;99.90;;;;;;5108819;28;20550;-55
2023/01/04 09:53:56;;;;;;;5.22;4.05;;;7.10;99.90;;;;;;5084895;28;20056;-54
2023/01/04 09:56:29;;;;;;;6.65;3.33;;;7.10;99.90;;;;;;5068576;28;20032;-53
2023/01/04 09:58:55;;;;;;;6.07;3.42;;;7.10;99.90;;;;;;5087939;28;20111;-56
2023/01/04 10:01:31;;;;;;;5.28;3.53;;;7.10;99.90;;;;;;5108617;28;20024;-54
2023/01/04 10:04:25;;;;;;;8.93;3.30;;;7.10;99.90;;;;;;5086627;28;20115;-53
2023/01/04 10:06:51;;;;;;;9.13;3.72;;;7.20;99.90;;;;;;5065538;28;20037;-55
2023/01/04 10:09:17;;;;;;;4.60;3.40;;;7.20;99.90;;;;;;5088904;28;20016;-52
2023/01/04 10:12:04;;;;;;;5.72;4.15;;;7.20;99.90;;;;;;5105438;28;20545;-55
2023/01/04 10:14:52;;;;;;;7.40;5.45;;;7.20;99.90;;;;;;5091899;28;20020;-53
2023/01/04 10:17:51;;;;;;;7.47;4.40;;;7.20;99.90;;;;;;5104740;28;20028;-50
2023/01/04 10:20:23;;;;;;;6.65;3.92;;;7.30;99.90;;;;;;5068338;28;20106;-54
2023/01/04 10:23:04;;;;;;;4.95;3.35;;;7.30;99.90;;;;;;5098692;28;20020;-56
2023/01/04 10:25:54;;;;;;;5.07;3.10;;;7.30;99.90;;;;;;5072047;28;20101;-55
2023/01/04 10:28:49;;;;;;;5.80;3.50;;;7.30;99.90;;;;;;5084596;28;20106;-56
2023/01/04 10:31:21;;;;;;;5.32;3.10;;;7.30;99.90;;;;;;5070698;28;20085;-54
2023/01/04 10:33:48;;;;;;;5.15;3.25;;;7.30;99.90;;;;;;5087220;28;20024;-54
2023/01/04 10:36:25;;;;;;;6.28;3.40;;;7.30;99.90;;;;;;5112047;28;20118;-49
2023/01/04 10:39:02;;;;;;;7.85;3.10;;;7.30;99.90;;;;;;5089003;28;20040;-62
2023/01/04 10:41:33;;;;;;;5.45;3.63;;;7.30;99.90;;;;;;5071886;28;20445;-62
2023/01/04 10:44:23;;;;;;;5.88;3.78;;;7.30;99.90;;;;;;5090082;28;20075;-62
2023/01/04 10:46:59;;;;;;;5.95;3.20;;;7.30;99.90;;;;;;5062325;28;20139;-61
2023/01/04 10:49:31;;;;;;;;;;;7.30;99.90;;;;;;5092583;28;20116;-62
2023/01/04 10:52:01;;;;;;;4.07;3.38;;;7.30;99.90;;;;;;5072825;28;20209;-62
2023/01/04 10:54:46;;;;;;;3.90;2.92;;;7.30;99.90;;;;;;5091851;28;20080;-62
2023/01/04 10:57:24;;;;;;;7.18;3.25;;;7.30;99.90;;;;;;5074874;28;20104;-61
2023/01/04 11:00:00;;;;;;;3.50;3.08;;;7.30;99.90;;;;;;5091853;28;20027;-62
2023/01/04 11:02:42;;;;;;;3.97;2.60;;;7.40;99.90;;;;;;5074697;28;20047;-61
2023/01/04 11:05:19;;;;;;;5.93;3.42;;;7.40;99.90;;;;;;5085135;28;20034;-61
2023/01/04 11:08:09;;;;;;;3.72;2.45;;;7.40;99.90;;;;;;5089063;28;20535;-62
2023/01/04 11:10:41;;;;;;;6.00;2.53;;;7.40;99.90;;;;;;5110535;28;20548;-62
2023/01/04 11:13:06;;;;;;;4.70;2.97;;;7.40;99.90;;;;;;5075251;28;20769;-61
2023/01/04 11:15:32;;;;;;;5.05;2.47;;;7.50;99.90;;;;;;5091794;28;20029;-62
2023/01/04 11:18:01;;;;;;;3.33;2.65;;;7.50;99.90;;;;;;5104277;28;20173;-62
2023/01/04 11:20:28;;;;;;;5.45;2.88;;;7.40;99.90;;;;;;5091388;28;20059;-61
2023/01/04 11:22:53;;;;;;;6.78;3.47;;;7.50;99.90;;;;;;5109361;28;20038;-62
2023/01/04 11:25:21;;;;;;;5.38;3.13;;;7.40;99.90;;;;;;5109905;28;20099;-61
2023/01/04 11:27:53;;;;;;;8.10;3.55;;;7.50;99.90;;;;;;5090905;28;20106;-61
2023/01/04 11:30:22;;;;;;;6.05;3.35;;;7.50;99.90;;;;;;5091099;28;20039;-62
2023/01/04 11:33:01;;;;;;;4.40;2.60;;;7.50;99.90;;;;;;5105847;28;20024;-62
2023/01/04 11:35:47;;;;;;;4.25;2.50;;;7.50;99.90;;;;;;5091012;28;20027;-62
2023/01/04 11:38:23;;;;;;;3.83;2.63;;;7.60;99.90;;;;;;5075874;28;20024;-61
2023/01/04 11:41:04;;;;;;;5.50;3.00;;;7.50;99.90;;;;;;5091003;28;20028;-61
2023/01/04 11:43:38;;;;;;;4.85;2.60;;;7.60;99.90;;;;;;5078218;28;20028;-61
2023/01/04 11:46:19;;;;;;;3.67;2.80;;;7.60;99.90;;;;;;5070594;28;20029;-61
2023/01/04 11:48:46;;;;;;;6.88;2.97;;;7.60;99.90;;;;;;5080156;28;20028;-62
2023/01/04 11:51:30;;;;;;;5.53;2.58;;;7.70;99.90;;;;;;5110616;28;20028;-61
2023/01/04 11:54:17;;;;;;;6.45;2.35;;;7.60;99.90;;;;;;5081573;28;20024;-61
2023/01/04 11:57:07;;;;;;;8.05;2.90;;;7.70;99.90;;;;;;5070442;28;20074;-61
2023/01/04 11:59:32;;;;;;;2.65;2.10;;;7.70;99.90;;;;;;5086524;28;20050;-61
2023/01/04 12:02:24;;;;;;;4.80;2.40;;;7.70;99.90;;;;;;5110311;28;20028;-62
2023/01/04 12:04:52;;;;;;;5.28;2.65;;;7.70;99.90;;;;;;5071232;28;20034;-53
2023/01/04 12:07:29;;;;;;;2.28;1.88;;;7.70;99.90;;;;;;5110727;28;20383;-55
2023/01/04 12:09:55;;;;;;;2.55;1.90;;;7.80;99.90;;;;;;5067728;28;20031;-54
2023/01/04 12:12:25;;;;;;;4.03;2.72;;;7.80;99.90;;;;;;5079067;28;20479;-57
2023/01/04 12:14:50;;;;;;;6.75;3.58;;;7.80;99.90;;;;;;5094996;28;20619;-54
2023/01/04 12:17:24;;;;;;;11.68;4.57;;;7.80;99.90;;;;;;5087879;28;20032;-48
2023/01/04 12:19:54;;;;;;;10.65;4.00;;;7.80;99.90;;;;;;5074590;28;20024;-52
2023/01/04 12:22:37;;;;;;;9.95;4.13;;;7.90;99.90;;;;;;5087495;28;20016;-51
2023/01/04 12:25:06;;;;;;;9.95;4.10;;;7.80;99.90;;;;;;5094599;28;20054;-53
2023/01/04 12:27:32;;;;;;;3.88;2.40;;;7.90;99.90;;;;;;5090304;28;20028;-52
2023/01/04 12:30:06;;;;;;;4.50;2.40;;;7.90;99.90;;;;;;5089618;28;20090;-50
2023/01/04 12:32:32;;;;;;;3.55;1.83;;;7.90;99.90;;;;;;5087460;28;20475;-52
2023/01/04 12:34:57;;;;;;;3.05;1.98;;;7.90;99.90;;;;;;5090625;28;20032;-49
2023/01/04 12:37:50;;;;;;;3.15;1.98;;;8.00;99.90;;;;;;5086955;28;20039;-50
2023/01/04 12:40:43;;;;;;;4.10;2.05;;;8.00;99.90;;;;;;5084718;28;20334;-54
2023/01/04 12:43:15;;;;;;;5.05;2.20;;;8.00;99.90;;;;;;5087680;28;20068;-53
2023/01/04 12:45:41;;;;;;;3.75;1.83;;;8.00;99.90;;;;;;5093682;28;20427;-55
2023/01/04 12:51:22;;;;;;;4.18;2.20;;;8.00;99.90;;;;;;5080724;28;20059;-53
2023/01/04 12:53:53;;;;;;;3.75;2.00;;;8.00;99.90;;;;;;5093487;28;20077;-54
2023/01/04 12:56:19;;;;;;;3.40;2.30;;;8.00;99.90;;;;;;5085190;28;20024;-52
2023/01/04 12:59:05;;;;;;;3.33;2.15;;;8.00;99.90;;;;;;5086738;28;20026;-48
2023/01/04 13:01:30;;;;;;;3.00;1.27;;;8.00;99.90;;;;;;5100874;28;20034;-52
2023/01/04 13:04:02;;;;;;;5.13;2.22;;;8.00;99.90;;;;;;5088541;28;20040;-50
2023/01/04 13:06:30;;;;;;;2.22;1.80;;;8.00;99.90;;;;;;5080457;28;20114;-53
2023/01/04 13:08:55;;;;;;;2.53;1.77;;;8.00;99.90;;;;;;5089556;28;20062;-48
2023/01/04 13:11:38;;;;;;;3.38;1.77;;;8.10;99.90;;;;;;5105870;28;20467;-53
2023/01/04 13:14:10;;;;;;;3.08;1.77;;;8.10;99.90;;;;;;5067900;28;20024;-55
2023/01/04 13:17:03;;;;;;;5.90;2.22;;;8.10;99.90;;;;;;5099082;28;20046;-51
2023/01/04 13:19:30;;;;;;;5.20;2.83;;;8.10;99.90;;;;;;5068932;28;20456;-50
2023/01/04 13:21:55;;;;;;;5.80;3.13;;;8.10;99.90;;;;;;5092563;28;20024;-53
2023/01/04 13:24:21;;;;;;;5.20;3.05;;;8.10;99.90;;;;;;5108542;28;20475;-50
2023/01/04 13:26:47;;;;;;;3.67;2.42;;;8.10;99.90;;;;;;5087761;28;20047;-52
2023/01/04 13:29:22;;;;;;;6.07;3.10;;;8.10;99.90;;;;;;5108531;28;20040;-55
2023/01/04 13:31:58;;;;;;;5.53;2.92;;;8.10;99.90;;;;;;5081076;28;20089;-51
2023/01/04 13:34:37;;;;;;;3.90;2.45;;;8.10;99.90;;;;;;5068972;28;20525;-53
2023/01/04 13:37:16;;;;;;;5.68;3.20;;;8.10;99.90;;;;;;5091601;28;20103;-49
2023/01/04 13:39:49;;;;;;;3.35;2.17;;;8.10;99.90;;;;;;5109224;28;20020;-51
2023/01/04 13:42:27;;;;;;;6.00;2.60;;;8.10;99.90;;;;;;5086096;28;20025;-52
2023/01/04 13:44:55;;;;;;;6.03;2.88;;;8.10;99.90;;;;;;5068995;28;20035;-51
2023/01/04 13:47:21;;;;;;;2.70;2.00;;;8.10;99.90;;;;;;5089381;28;20174;-52
2023/01/04 13:49:46;;;;;;;5.20;2.17;;;8.20;99.90;;;;;;5112604;28;20110;-53
2023/01/04 13:52:28;;;;;;;4.80;2.80;;;8.20;99.90;;;;;;5085395;28;20381;-50
2023/01/04 13:55:12;;;;;;;3.05;1.90;;;8.20;99.90;;;;;;5086566;28;20028;-54
2023/01/04 13:57:37;;;;;;;3.42;2.22;;;8.20;99.90;;;;;;5099296;28;20039;-51
2023/01/04 14:00:07;;;;;;;4.07;2.25;;;8.20;99.90;;;;;;5102476;28;20414;-52
2023/01/04 14:02:34;;;;;;;3.10;1.85;;;8.20;99.90;;;;;;5098247;28;20023;-51
2023/01/04 14:05:00;;;;;;;4.72;1.90;;;8.20;99.90;;;;;;5093127;28;20043;-54
2023/01/04 14:07:26;;;;;;;1.83;1.40;;;8.20;99.90;;;;;;5093595;28;20027;-53
2023/01/04 14:09:56;;;;;;;2.40;1.73;;;8.20;99.90;;;;;;5090227;28;20281;-52
2023/01/04 14:12:25;;;;;;;2.92;1.88;;;8.20;99.90;;;;;;5099675;28;20142;-54
2023/01/04 14:14:57;;;;;;;2.20;1.92;;;8.20;99.90;;;;;;5094155;28;20417;-51